CheckWX is a tool to help pilots better visualize weather data.  It is not intended as a substitute for an official pre-flight weather briefing.

08:00:14 UTC

ZJHK TAF
Haikou Meilan International Airport
Haikou, China
TAF ZJHK 190141Z 1906/2006 12004MPS 5000 BR SCT015 TX32/1906Z TN22/1921Z

Mar-19@
06:00 UTC

Mar-19 @ 06:00 UTC

Mar-20@
06:00 UTC

Mar-20 @ 06:00 UTC

TAF ZJHK 190141Z 1906/2006 12004MPS 5000 BR SCT015 TX32/1906Z TN22/1921Z
Wind
  • 120° at 8 KTS
Conditions
Mist
Cloud Levels
  • Scattered at 1,500' AGL